Time;durP1;ratioP1;P1;durP2;ratioP2;P2;SDS_P1;SDS_P2;PMS_P1;PMS_P2;Temp;Humidity;BMP_temperature;BMP_pressure;BME280_temperature;BME280_humidity;BME280_pressure;Samples;Min_cycle;Max_cycle;Signal;HPM_P1;HPM_P2
2024/03/28 00:02:03;;;;;;;7.45;4.57;;;5.80;99.90;;;;;;5059023;28;20045;-46
2024/03/28 00:04:30;;;;;;;6.90;4.13;;;5.70;99.90;;;;;;5062898;28;20028;-46
2024/03/28 00:06:57;;;;;;;8.18;4.53;;;5.80;99.90;;;;;;5059310;28;20037;-48
2024/03/28 00:09:23;;;;;;;7.35;4.55;;;5.80;99.90;;;;;;5072558;28;20044;-47
2024/03/28 00:11:49;;;;;;;7.10;4.22;;;5.80;99.90;;;;;;5063898;28;20048;-43
2024/03/28 00:14:15;;;;;;;7.60;4.57;;;5.90;99.90;;;;;;5071209;28;20053;-48
2024/03/28 00:16:42;;;;;;;6.97;4.05;;;5.90;99.90;;;;;;5073598;28;20530;-49
2024/03/28 00:19:08;;;;;;;7.00;4.70;;;5.90;99.90;;;;;;5072658;28;20048;-43
2024/03/28 00:21:36;;;;;;;7.10;4.40;;;5.80;99.90;;;;;;5054977;28;20037;-45
2024/03/28 00:24:02;;;;;;;7.93;4.90;;;5.80;99.90;;;;;;5074016;28;20043;-45
2024/03/28 00:26:28;;;;;;;8.35;5.05;;;5.90;99.90;;;;;;5078620;28;20542;-44
2024/03/28 00:28:54;;;;;;;6.57;4.50;;;5.90;99.90;;;;;;5075180;28;20044;-45
2024/03/28 00:31:20;;;;;;;9.00;4.63;;;5.90;99.90;;;;;;5072902;28;20055;-46
2024/03/28 00:33:46;;;;;;;7.45;4.63;;;6.00;99.90;;;;;;5070588;28;20050;-45
2024/03/28 00:36:12;;;;;;;7.30;4.70;;;6.00;99.90;;;;;;5072234;28;20041;-45
2024/03/28 00:38:38;;;;;;;7.25;4.50;;;6.10;99.90;;;;;;5072538;28;20083;-42
2024/03/28 00:41:04;;;;;;;7.10;4.65;;;6.10;99.90;;;;;;5071105;28;20052;-46
2024/03/28 00:43:31;;;;;;;6.32;4.20;;;6.20;99.90;;;;;;5075805;28;20053;-46
2024/03/28 00:46:00;;;;;;;6.32;4.00;;;6.20;99.90;;;;;;5073543;28;20268;-45
2024/03/28 00:48:26;;;;;;;6.60;4.18;;;6.30;99.90;;;;;;5071301;28;20048;-47
2024/03/28 00:51:00;;;;;;;7.32;4.80;;;6.20;99.90;;;;;;5075436;28;20036;-46
2024/03/28 00:53:27;;;;;;;6.20;4.25;;;6.20;99.90;;;;;;5067965;28;20059;-45
2024/03/28 00:55:53;;;;;;;6.60;4.40;;;6.30;99.90;;;;;;5070775;28;20036;-44
2024/03/28 00:58:20;;;;;;;9.50;4.47;;;6.30;99.90;;;;;;5072157;28;20048;-41
2024/03/28 01:00:48;;;;;;;6.00;3.95;;;6.30;99.90;;;;;;5068827;28;20032;-43
2024/03/28 01:03:15;;;;;;;7.10;4.18;;;6.20;99.90;;;;;;5070218;28;20050;-46
2024/03/28 01:05:42;;;;;;;8.98;4.25;;;6.30;99.90;;;;;;5065830;28;20048;-46
2024/03/28 01:08:08;;;;;;;7.85;4.60;;;6.30;99.90;;;;;;5067732;28;20549;-42
2024/03/28 01:10:35;;;;;;;6.63;3.97;;;6.30;99.90;;;;;;5072942;28;20550;-44
2024/03/28 01:13:02;;;;;;;7.90;3.80;;;6.30;99.90;;;;;;5055847;28;20051;-43
2024/03/28 01:15:28;;;;;;;5.40;3.72;;;6.30;99.90;;;;;;5070704;28;20058;-46
2024/03/28 01:17:54;;;;;;;6.13;3.80;;;6.40;99.90;;;;;;5074196;28;20142;-46
2024/03/28 01:20:21;;;;;;;7.38;3.83;;;6.30;99.90;;;;;;5067410;28;20059;-47
2024/03/28 01:22:47;;;;;;;7.45;3.90;;;6.30;99.90;;;;;;5070800;28;20501;-46
2024/03/28 01:25:13;;;;;;;5.55;3.83;;;6.40;99.90;;;;;;5072127;28;20037;-42
2024/03/28 01:27:39;;;;;;;5.95;3.95;;;6.30;99.90;;;;;;5067429;28;20040;-46
2024/03/28 01:30:07;;;;;;;10.07;4.30;;;6.30;99.90;;;;;;5071369;28;20045;-44
2024/03/28 01:32:33;;;;;;;7.80;4.72;;;6.30;99.90;;;;;;5068977;28;20150;-46
2024/03/28 01:34:59;;;;;;;6.38;4.45;;;6.30;99.90;;;;;;5069948;28;20052;-46
2024/03/28 01:37:28;;;;;;;6.60;4.28;;;6.30;99.90;;;;;;5071220;28;20077;-43
2024/03/28 01:39:54;;;;;;;6.05;4.10;;;6.30;99.90;;;;;;5067171;28;20033;-47
2024/03/28 01:42:20;;;;;;;7.28;4.38;;;6.30;99.90;;;;;;5068613;28;20037;-47
2024/03/28 01:44:47;;;;;;;7.35;4.78;;;6.30;99.90;;;;;;5071108;28;20429;-44
2024/03/28 01:47:14;;;;;;;8.18;4.43;;;6.20;99.90;;;;;;5065740;28;20059;-45
2024/03/28 01:49:41;;;;;;;9.77;5.47;;;6.30;99.90;;;;;;5072734;28;20385;-46
2024/03/28 01:52:10;;;;;;;6.57;4.85;;;6.30;99.90;;;;;;5068410;28;20051;-46
2024/03/28 01:54:38;;;;;;;6.97;5.03;;;6.20;99.90;;;;;;5069177;28;20121;-47
2024/03/28 01:57:05;;;;;;;7.20;4.97;;;6.30;99.90;;;;;;5070030;28;20048;-51
2024/03/28 01:59:31;;;;;;;10.63;5.43;;;6.40;99.90;;;;;;5069693;28;20584;-47
2024/03/28 02:01:58;;;;;;;7.18;4.90;;;6.40;99.90;;;;;;5068450;28;20459;-45
2024/03/28 02:04:25;;;;;;;9.18;5.35;;;6.40;99.90;;;;;;5067194;28;20025;-49
2024/03/28 02:06:51;;;;;;;6.88;4.82;;;6.40;99.90;;;;;;5065415;28;20063;-46
2024/03/28 02:09:18;;;;;;;7.50;5.05;;;6.50;99.90;;;;;;5074502;28;20052;-43
2024/03/28 02:11:44;;;;;;;8.23;5.40;;;6.50;99.90;;;;;;5079144;28;20044;-44
2024/03/28 02:14:11;;;;;;;9.38;5.45;;;6.50;99.90;;;;;;5078067;28;20036;-45
2024/03/28 02:16:37;;;;;;;9.30;5.47;;;6.50;99.90;;;;;;5076925;28;20040;-45
2024/03/28 02:19:04;;;;;;;7.97;5.55;;;6.50;99.90;;;;;;5081456;28;20055;-47
2024/03/28 02:21:30;;;;;;;10.48;6.30;;;6.40;99.90;;;;;;5090003;28;20048;-48
2024/03/28 02:23:56;;;;;;;9.02;6.05;;;6.40;99.90;;;;;;5081321;28;20044;-42
2024/03/28 02:26:24;;;;;;;8.50;5.85;;;6.40;99.90;;;;;;5072642;28;20048;-48
2024/03/28 02:28:51;;;;;;;10.13;6.07;;;6.40;99.90;;;;;;5078369;28;20085;-49
2024/03/28 02:31:17;;;;;;;10.20;6.00;;;6.30;99.90;;;;;;5078946;28;20363;-48
2024/03/28 02:33:44;;;;;;;9.95;6.10;;;6.30;99.90;;;;;;5077199;28;20047;-47
2024/03/28 02:36:10;;;;;;;8.85;5.75;;;6.20;99.90;;;;;;5074456;28;20131;-47
2024/03/28 02:38:36;;;;;;;8.32;5.80;;;6.20;99.90;;;;;;5070692;28;20544;-43
2024/03/28 02:41:03;;;;;;;10.15;6.30;;;6.20;99.90;;;;;;5073969;28;20574;-45
2024/03/28 02:43:30;;;;;;;8.77;5.70;;;6.20;99.90;;;;;;5068899;28;20040;-46
2024/03/28 02:45:56;;;;;;;9.57;5.93;;;6.20;99.90;;;;;;5068346;28;20109;-50
2024/03/28 02:48:22;;;;;;;8.07;5.88;;;6.10;99.90;;;;;;5074422;28;20481;-47
2024/03/28 02:50:48;;;;;;;8.68;6.03;;;6.10;99.90;;;;;;5056414;28;20420;-43
2024/03/28 02:53:15;;;;;;;8.45;5.88;;;6.10;99.90;;;;;;5066454;28;20319;-45
2024/03/28 02:55:41;;;;;;;9.65;6.35;;;6.00;99.90;;;;;;5069806;28;20409;-45
2024/03/28 02:58:06;;;;;;;9.82;5.78;;;6.00;99.90;;;;;;5077621;28;20078;-47
2024/03/28 03:00:33;;;;;;;8.07;5.72;;;6.00;99.90;;;;;;5070360;28;20037;-42
2024/03/28 03:03:01;;;;;;;10.02;6.90;;;6.00;99.90;;;;;;5076136;28;20036;-44
2024/03/28 03:05:28;;;;;;;10.48;6.78;;;5.90;99.90;;;;;;5065573;28;20517;-44
2024/03/28 03:07:54;;;;;;;9.57;6.38;;;5.80;99.90;;;;;;5070675;28;20108;-46
2024/03/28 03:10:20;;;;;;;11.63;6.78;;;5.80;99.90;;;;;;5076364;28;20448;-48
2024/03/28 03:12:46;;;;;;;9.80;6.18;;;5.80;99.90;;;;;;5068618;28;20075;-45
2024/03/28 03:15:12;;;;;;;11.07;7.82;;;5.80;99.90;;;;;;5073125;28;20509;-47
2024/03/28 03:17:38;;;;;;;9.93;7.20;;;5.80;99.90;;;;;;5078161;28;20335;-45
2024/03/28 03:20:08;;;;;;;12.35;7.63;;;5.80;99.90;;;;;;5072147;28;20044;-49
2024/03/28 03:22:39;;;;;;;11.35;7.43;;;5.70;99.90;;;;;;5075504;28;20037;-51
2024/03/28 03:25:13;;;;;;;9.82;6.65;;;5.70;99.90;;;;;;5069581;28;20117;-48
2024/03/28 03:34:34;;;;;;;8.50;5.93;;;5.70;99.90;;;;;;5076891;28;20117;-48
2024/03/28 03:35:55;;;;;;;10.55;7.40;;;5.70;99.90;;;;;;5063696;28;20048;-46
2024/03/28 03:38:21;;;;;;;11.88;8.00;;;5.60;99.90;;;;;;5066537;28;20574;-46
2024/03/28 03:40:47;;;;;;;9.00;6.68;;;5.60;99.90;;;;;;5074163;28;20051;-46
2024/03/28 03:43:13;;;;;;;12.85;6.55;;;5.60;99.90;;;;;;5074423;28;20040;-47
2024/03/28 03:45:39;;;;;;;12.93;7.10;;;5.60;99.90;;;;;;5070988;28;20137;-46
2024/03/28 03:48:05;;;;;;;11.82;7.97;;;5.60;99.90;;;;;;5077090;28;20450;-46
2024/03/28 03:50:31;;;;;;;10.13;6.85;;;5.60;99.90;;;;;;5074131;28;20052;-45
2024/03/28 03:52:57;;;;;;;12.63;7.78;;;5.60;99.90;;;;;;5072969;28;20056;-44
2024/03/28 03:55:23;;;;;;;11.88;7.93;;;5.50;99.90;;;;;;5064085;28;20122;-46
2024/03/28 03:57:49;;;;;;;11.32;7.75;;;5.50;99.90;;;;;;5078426;28;20119;-46
2024/03/28 04:00:15;;;;;;;10.73;7.60;;;5.40;99.90;;;;;;5060803;28;20497;-45
2024/03/28 04:02:41;;;;;;;12.48;8.10;;;5.30;99.90;;;;;;5076177;28;20047;-46
2024/03/28 04:05:08;;;;;;;13.38;8.18;;;5.20;99.90;;;;;;5065672;28;20845;-45
2024/03/28 04:07:34;;;;;;;13.05;8.35;;;5.20;99.90;;;;;;5077505;28;20048;-49
2024/03/28 04:10:00;;;;;;;13.48;9.00;;;5.20;99.90;;;;;;5074213;28;20041;-45
2024/03/28 04:12:26;;;;;;;14.07;8.52;;;5.10;99.90;;;;;;5074635;28;20095;-46
2024/03/28 04:14:52;;;;;;;13.60;9.85;;;5.10;99.90;;;;;;5072297;28;20072;-45
2024/03/28 04:17:18;;;;;;;13.95;9.00;;;5.10;99.90;;;;;;5070834;28;20044;-48
2024/03/28 04:19:44;;;;;;;14.70;9.07;;;5.10;99.90;;;;;;5076499;28;20038;-47
2024/03/28 04:22:11;;;;;;;16.27;10.57;;;5.00;99.90;;;;;;5072061;28;20506;-45
2024/03/28 04:24:38;;;;;;;14.75;9.57;;;5.00;99.90;;;;;;5074832;28;20491;-46
2024/03/28 04:27:04;;;;;;;14.60;9.63;;;5.00;99.90;;;;;;5069002;28;20059;-46
2024/03/28 04:29:30;;;;;;;14.25;10.00;;;5.00;99.90;;;;;;5054273;28;20087;-44
2024/03/28 04:31:56;;;;;;;15.90;9.88;;;5.00;99.90;;;;;;5066494;28;20048;-46
2024/03/28 04:34:23;;;;;;;14.60;10.23;;;4.90;99.90;;;;;;5073823;28;20055;-46
2024/03/28 04:36:49;;;;;;;17.85;10.80;;;4.90;99.90;;;;;;5076062;28;20040;-46
2024/03/28 04:39:15;;;;;;;15.82;10.35;;;4.80;99.90;;;;;;5065873;28;20063;-44
2024/03/28 04:41:41;;;;;;;16.33;10.75;;;4.80;99.90;;;;;;5069477;28;20513;-46
2024/03/28 04:44:07;;;;;;;16.33;10.50;;;4.80;99.90;;;;;;5069375;28;20049;-48
2024/03/28 04:46:33;;;;;;;17.02;9.82;;;4.80;99.90;;;;;;5065195;28;20127;-44
2024/03/28 04:48:59;;;;;;;15.63;10.57;;;4.70;99.90;;;;;;5073647;28;20089;-44
2024/03/28 04:51:27;;;;;;;16.73;10.65;;;4.70;99.90;;;;;;5086311;28;20055;-47
2024/03/28 04:53:53;;;;;;;19.85;10.70;;;4.70;99.90;;;;;;5069922;28;20044;-45
2024/03/28 04:56:19;;;;;;;17.30;10.77;;;4.70;99.90;;;;;;5077800;28;20107;-42
2024/03/28 04:58:45;;;;;;;16.02;10.45;;;4.70;99.90;;;;;;5073315;28;20117;-45
2024/03/28 05:01:11;;;;;;;17.10;10.95;;;4.70;99.90;;;;;;5085187;28;20058;-46
2024/03/28 05:03:37;;;;;;;16.02;11.15;;;4.60;99.90;;;;;;5073303;28;20040;-43
2024/03/28 05:06:03;;;;;;;16.13;11.23;;;4.60;99.90;;;;;;5077137;28;20094;-46
2024/03/28 05:08:29;;;;;;;17.23;11.15;;;4.50;99.90;;;;;;5070403;28;20054;-49
2024/03/28 05:10:58;;;;;;;17.58;11.23;;;4.50;99.90;;;;;;5077460;28;20473;-47
2024/03/28 05:13:24;;;;;;;17.77;11.85;;;4.50;99.90;;;;;;5083150;28;20479;-47
2024/03/28 05:15:50;;;;;;;17.98;11.27;;;4.50;99.90;;;;;;5078397;28;20063;-49
2024/03/28 05:18:16;;;;;;;17.75;11.77;;;4.50;99.90;;;;;;5084596;28;20150;-50
2024/03/28 05:20:42;;;;;;;18.63;11.68;;;4.50;99.90;;;;;;5070809;28;20061;-48
2024/03/28 05:23:08;;;;;;;17.58;11.10;;;4.50;99.90;;;;;;5074427;28;20040;-44
2024/03/28 05:25:34;;;;;;;16.55;10.85;;;4.50;99.90;;;;;;5075865;28;20033;-46
2024/03/28 05:28:00;;;;;;;18.02;11.13;;;4.50;99.90;;;;;;5082113;28;20115;-50
2024/03/28 05:30:27;;;;;;;16.10;10.68;;;4.50;99.90;;;;;;5083768;28;20517;-46
2024/03/28 05:32:53;;;;;;;18.15;11.60;;;4.60;99.90;;;;;;5070506;28;20089;-43
2024/03/28 05:35:19;;;;;;;18.67;11.23;;;4.60;99.90;;;;;;5072245;28;20051;-48
2024/03/28 05:37:45;;;;;;;18.73;11.15;;;4.60;99.90;;;;;;5069260;28;20044;-45
2024/03/28 05:40:11;;;;;;;18.77;11.38;;;4.60;99.90;;;;;;5061052;28;20107;-43
2024/03/28 05:42:37;;;;;;;17.33;11.43;;;4.70;99.90;;;;;;5068375;28;20415;-45
2024/03/28 05:45:03;;;;;;;19.23;11.93;;;4.70;99.90;;;;;;5078660;28;20135;-47
2024/03/28 05:47:29;;;;;;;17.40;10.90;;;4.70;99.90;;;;;;5073069;28;20123;-42
2024/03/28 05:49:55;;;;;;;17.88;11.20;;;4.70;99.90;;;;;;5073590;28;20083;-44
2024/03/28 05:52:23;;;;;;;16.95;11.18;;;4.80;99.90;;;;;;5074480;28;20079;-46
2024/03/28 05:54:49;;;;;;;19.05;12.07;;;4.80;99.90;;;;;;5069982;28;20036;-43
2024/03/28 05:57:15;;;;;;;18.38;11.82;;;4.80;99.90;;;;;;5073730;28;20127;-45
2024/03/28 05:59:41;;;;;;;20.55;13.45;;;4.80;99.90;;;;;;5083461;28;20477;-46
2024/03/28 06:02:06;;;;;;;18.67;12.27;;;4.80;99.90;;;;;;5083364;28;20082;-44
2024/03/28 06:04:32;;;;;;;19.27;11.98;;;4.80;99.90;;;;;;5079239;28;20315;-43
2024/03/28 06:06:59;;;;;;;19.48;11.80;;;4.80;99.90;;;;;;5059605;28;20045;-41
2024/03/28 06:09:25;;;;;;;20.10;13.07;;;4.80;99.90;;;;;;5072957;28;20128;-50
2024/03/28 06:11:51;;;;;;;20.80;12.00;;;4.80;99.90;;;;;;5070896;28;20094;-46
2024/03/28 06:14:17;;;;;;;17.67;11.32;;;4.80;99.90;;;;;;5068790;28;20075;-44
2024/03/28 06:16:43;;;;;;;17.65;11.05;;;4.80;99.90;;;;;;5075073;28;20040;-45
2024/03/28 06:19:09;;;;;;;18.50;11.85;;;4.80;99.90;;;;;;5077711;28;20346;-46
2024/03/28 06:21:35;;;;;;;19.27;11.45;;;4.90;99.90;;;;;;5072270;28;20093;-49
2024/03/28 06:24:01;;;;;;;24.45;16.00;;;5.00;99.90;;;;;;5063009;28;20059;-46
2024/03/28 06:26:27;;;;;;;17.60;11.52;;;5.00;99.90;;;;;;5069910;28;20055;-48
2024/03/28 06:28:53;;;;;;;17.20;11.43;;;5.00;99.90;;;;;;5076360;28;20043;-45
2024/03/28 06:31:21;;;;;;;16.45;10.75;;;5.20;99.90;;;;;;5082897;28;20524;-43
2024/03/28 06:33:50;;;;;;;16.50;10.60;;;5.20;99.90;;;;;;5073393;28;20051;-46
2024/03/28 06:36:16;;;;;;;16.15;11.05;;;5.30;99.90;;;;;;5082957;28;20048;-46
2024/03/28 06:38:42;;;;;;;17.13;11.00;;;5.30;99.90;;;;;;5071664;28;20406;-42
2024/03/28 06:41:08;;;;;;;15.63;10.15;;;5.30;99.90;;;;;;5073684;28;20044;-42
2024/03/28 06:43:34;;;;;;;17.33;10.63;;;5.30;99.90;;;;;;5077079;28;20037;-42
2024/03/28 06:46:03;;;;;;;17.88;11.43;;;5.40;99.90;;;;;;5071511;28;20048;-41
2024/03/28 06:48:30;;;;;;;16.02;10.23;;;5.40;99.90;;;;;;5084143;28;20063;-42
2024/03/28 06:50:56;;;;;;;16.17;10.23;;;5.50;99.90;;;;;;5077337;28;20070;-46
2024/03/28 06:53:22;;;;;;;15.57;9.70;;;5.50;99.90;;;;;;5072484;28;20509;-42
2024/03/28 06:55:48;;;;;;;17.15;11.95;;;5.50;99.90;;;;;;5073741;28;20047;-44
2024/03/28 06:58:13;;;;;;;20.77;12.45;;;5.60;99.90;;;;;;5076143;28;20459;-45
2024/03/28 07:00:40;;;;;;;15.73;10.13;;;5.70;99.90;;;;;;5079001;28;20577;-42
2024/03/28 07:03:06;;;;;;;14.63;9.40;;;5.80;99.90;;;;;;5073622;28;20425;-46
2024/03/28 07:05:32;;;;;;;13.63;9.70;;;5.90;99.90;;;;;;5073646;28;20068;-46
2024/03/28 07:07:58;;;;;;;14.95;10.27;;;6.00;99.90;;;;;;5069572;28;20037;-43
2024/03/28 07:10:24;;;;;;;17.17;10.52;;;6.10;99.90;;;;;;5075164;28;20045;-43
2024/03/28 07:12:50;;;;;;;13.40;9.55;;;6.20;99.90;;;;;;5070714;28;20445;-46
2024/03/28 07:15:16;;;;;;;15.20;9.60;;;6.20;99.90;;;;;;5073784;28;20123;-49
2024/03/28 07:17:42;;;;;;;12.57;9.07;;;6.30;99.90;;;;;;5059513;28;20028;-44
2024/03/28 07:20:09;;;;;;;13.68;9.63;;;6.30;99.90;;;;;;5041346;28;20063;-44
2024/03/28 07:22:35;;;;;;;13.77;9.00;;;6.40;99.90;;;;;;5063328;28;20033;-45
2024/03/28 07:25:02;;;;;;;12.75;8.93;;;6.60;99.90;;;;;;5060631;28;20033;-44
2024/03/28 07:27:28;;;;;;;15.07;9.05;;;6.60;99.90;;;;;;5074579;28;20493;-44
2024/03/28 07:29:54;;;;;;;12.35;8.65;;;6.70;99.90;;;;;;5072586;28;20052;-49
2024/03/28 07:32:22;;;;;;;14.38;9.10;;;6.80;99.90;;;;;;5070979;28;20047;-46
2024/03/28 07:34:48;;;;;;;12.55;9.07;;;6.80;99.90;;;;;;5071877;28;20040;-47
2024/03/28 07:37:14;;;;;;;17.40;10.82;;;7.00;99.90;;;;;;5075343;28;20055;-45
2024/03/28 07:39:40;;;;;;;13.00;9.15;;;7.10;99.90;;;;;;5068701;28;20040;-43
2024/03/28 07:42:06;;;;;;;10.60;7.90;;;7.20;99.90;;;;;;5072792;28;20497;-46
2024/03/28 07:44:32;;;;;;;11.15;8.20;;;7.30;99.90;;;;;;5074551;28;20054;-46
2024/03/28 07:46:58;;;;;;;11.18;8.07;;;7.40;99.90;;;;;;5072113;28;20068;-45
2024/03/28 07:49:26;;;;;;;11.63;7.55;;;7.50;99.90;;;;;;5077066;28;20078;-42
2024/03/28 07:51:52;;;;;;;9.70;7.10;;;7.70;99.90;;;;;;5069542;28;20544;-49
2024/03/28 07:54:18;;;;;;;11.10;6.90;;;7.80;99.90;;;;;;5068886;28;20045;-45
2024/03/28 07:56:44;;;;;;;8.45;6.43;;;7.90;99.90;;;;;;5078063;28;20078;-49
2024/03/28 07:59:10;;;;;;;12.73;7.57;;;7.90;99.90;;;;;;5072386;28;20049;-42
2024/03/28 08:01:36;;;;;;;11.63;8.38;;;7.90;99.90;;;;;;5061210;28;20055;-47
2024/03/28 08:04:03;;;;;;;11.63;7.20;;;8.00;99.90;;;;;;5073754;28;20036;-46
2024/03/28 08:06:29;;;;;;;9.48;7.10;;;8.20;99.90;;;;;;5074036;28;20053;-45
2024/03/28 08:08:55;;;;;;;10.50;6.82;;;8.30;99.90;;;;;;5078463;28;20420;-45
2024/03/28 08:11:21;;;;;;;10.35;7.03;;;8.40;99.90;;;;;;5072862;28;20051;-44
2024/03/28 08:13:47;;;;;;;9.35;6.05;;;8.50;99.90;;;;;;5077756;28;20047;-42
2024/03/28 08:16:13;;;;;;;11.10;6.60;;;8.70;99.90;;;;;;5070436;28;20053;-44
2024/03/28 08:18:40;;;;;;;7.88;6.00;;;8.80;99.90;;;;;;5078746;28;20039;-43
2024/03/28 08:21:05;;;;;;;13.10;6.97;;;9.00;99.90;;;;;;5075733;28;20418;-45
2024/03/28 08:23:32;;;;;;;9.57;6.85;;;9.10;99.90;;;;;;5075204;28;20052;-45
2024/03/28 08:25:59;;;;;;;9.18;6.32;;;9.30;99.90;;;;;;5068161;28;20045;-46
2024/03/28 08:28:25;;;;;;;10.85;6.07;;;9.50;99.90;;;;;;5072227;28;20060;-46
2024/03/28 08:30:52;;;;;;;8.13;5.70;;;9.90;99.90;;;;;;5076029;28;20069;-42
2024/03/28 08:33:19;;;;;;;8.30;6.47;;;10.40;99.90;;;;;;5074979;28;20052;-46
2024/03/28 08:35:45;;;;;;;12.10;8.45;;;10.80;99.90;;;;;;5072749;28;20055;-48
2024/03/28 08:38:11;;;;;;;13.10;8.13;;;11.20;99.90;;;;;;5064049;28;20434;-46
2024/03/28 08:40:38;;;;;;;8.88;6.68;;;11.50;99.90;;;;;;5067738;28;20097;-46
2024/03/28 08:43:04;;;;;;;6.88;5.32;;;11.60;99.90;;;;;;5066294;28;20045;-43
2024/03/28 08:45:34;;;;;;;9.02;7.00;;;11.80;99.90;;;;;;5067972;28;20090;-47
2024/03/28 08:48:01;;;;;;;7.57;6.47;;;12.00;99.90;;;;;;5067449;28;20052;-46
2024/03/28 08:50:27;;;;;;;7.72;6.30;;;11.90;99.90;;;;;;5069966;28;20044;-45
2024/03/28 08:52:54;;;;;;;6.45;5.43;;;12.00;99.90;;;;;;5067121;28;20451;-44
2024/03/28 08:55:23;;;;;;;8.40;6.30;;;11.80;99.90;;;;;;5066928;28;20071;-44
2024/03/28 08:57:51;;;;;;;6.07;5.18;;;11.30;99.90;;;;;;5068313;28;20040;-45
2024/03/28 09:00:19;;;;;;;8.23;5.60;;;11.30;99.90;;;;;;5069838;28;20045;-46
2024/03/28 09:02:46;;;;;;;7.57;5.75;;;10.90;99.90;;;;;;5060686;28;20188;-42
2024/03/28 09:05:15;;;;;;;7.55;5.43;;;10.70;99.90;;;;;;5068333;28;20032;-44
2024/03/28 09:07:42;;;;;;;11.27;5.60;;;10.50;99.90;;;;;;5061676;28;20057;-42
2024/03/28 09:10:09;;;;;;;8.95;5.93;;;10.30;99.90;;;;;;5071246;28;20045;-47
2024/03/28 09:12:36;;;;;;;9.23;5.90;;;10.10;99.90;;;;;;5061351;28;20055;-45
2024/03/28 09:15:08;;;;;;;11.65;7.97;;;10.10;99.90;;;;;;5069164;28;20255;-45
2024/03/28 09:17:37;;;;;;;7.53;6.50;;;10.00;99.90;;;;;;5063883;28;20128;-48
2024/03/28 09:20:06;;;;;;;7.97;5.70;;;9.90;99.90;;;;;;5064540;28;20097;-45
2024/03/28 09:22:33;;;;;;;8.80;5.53;;;9.80;99.90;;;;;;5074079;28;20509;-46
2024/03/28 09:25:00;;;;;;;9.80;6.03;;;9.80;99.90;;;;;;5061976;28;20252;-46
2024/03/28 09:27:29;;;;;;;8.38;6.05;;;9.80;99.90;;;;;;5071227;28;20529;-47
2024/03/28 09:29:56;;;;;;;8.98;5.90;;;9.90;99.90;;;;;;5066788;28;20052;-45
2024/03/28 09:32:23;;;;;;;8.27;6.20;;;9.90;99.90;;;;;;5076476;28;20037;-47
2024/03/28 09:34:49;;;;;;;7.80;6.53;;;10.00;99.90;;;;;;5066355;28;20052;-46
2024/03/28 09:37:16;;;;;;;8.25;6.20;;;9.90;99.90;;;;;;5065559;28;20131;-47
2024/03/28 09:39:46;;;;;;;7.93;5.88;;;9.80;99.90;;;;;;5071754;28;20051;-42
2024/03/28 09:42:20;;;;;;;8.98;6.15;;;9.80;99.90;;;;;;5058675;28;20094;-45
2024/03/28 09:44:49;;;;;;;8.15;5.35;;;9.60;99.90;;;;;;5077959;28;20520;-46
2024/03/28 09:47:18;;;;;;;6.25;4.90;;;9.40;99.90;;;;;;5062704;28;20076;-45
2024/03/28 09:49:45;;;;;;;6.03;4.20;;;9.20;99.90;;;;;;5061292;28;20048;-43
2024/03/28 09:52:13;;;;;;;6.63;4.65;;;8.90;99.90;;;;;;5071765;28;20115;-48
2024/03/28 09:54:45;;;;;;;5.85;4.30;;;8.80;99.90;;;;;;5067738;28;20036;-47
2024/03/28 09:57:11;;;;;;;5.80;4.50;;;8.60;99.90;;;;;;5075461;28;20086;-46
2024/03/28 09:59:37;;;;;;;6.13;4.22;;;8.50;99.90;;;;;;5074034;28;20048;-46
2024/03/28 10:02:13;;;;;;;6.35;4.03;;;8.30;99.90;;;;;;5069276;28;20509;-48
2024/03/28 10:04:44;;;;;;;8.80;5.03;;;8.20;99.90;;;;;;5060188;28;20052;-45
2024/03/28 10:07:11;;;;;;;5.55;3.85;;;8.20;99.90;;;;;;5070299;28;20047;-48
2024/03/28 10:09:37;;;;;;;6.55;4.25;;;8.20;99.90;;;;;;5074288;28;20597;-43
2024/03/28 10:12:13;;;;;;;7.05;4.00;;;8.10;99.90;;;;;;5076044;28;20056;-46
2024/03/28 10:14:42;;;;;;;8.45;4.28;;;8.10;99.90;;;;;;5057353;28;20078;-45
2024/03/28 10:17:10;;;;;;;7.07;4.28;;;8.10;99.90;;;;;;5072684;28;20052;-46
2024/03/28 10:19:39;;;;;;;5.95;4.10;;;8.10;99.90;;;;;;5065195;28;20036;-44
2024/03/28 10:22:09;;;;;;;7.25;4.60;;;8.10;99.90;;;;;;5075218;28;20066;-43
2024/03/28 10:24:37;;;;;;;6.47;4.15;;;8.30;99.90;;;;;;5070586;28;20086;-49
2024/03/28 10:27:18;;;;;;;7.63;4.65;;;8.50;99.90;;;;;;5073725;28;20534;-46
2024/03/28 10:29:56;;;;;;;5.97;4.32;;;8.70;99.90;;;;;;5075954;28;20056;-48
2024/03/28 10:32:22;;;;;;;6.30;4.13;;;8.80;99.90;;;;;;5076912;28;20441;-46
2024/03/28 10:34:49;;;;;;;10.23;5.35;;;8.90;99.90;;;;;;5069022;28;20592;-47
2024/03/28 10:37:20;;;;;;;7.65;4.63;;;9.10;99.90;;;;;;5075163;28;20052;-45
2024/03/28 10:39:46;;;;;;;10.02;5.18;;;9.20;99.90;;;;;;5070036;28;20034;-44
2024/03/28 10:42:16;;;;;;;6.55;4.00;;;9.40;99.90;;;;;;5070513;28;20090;-45
2024/03/28 10:44:44;;;;;;;6.13;4.35;;;9.50;99.90;;;;;;5081829;28;20036;-42
2024/03/28 10:47:13;;;;;;;7.15;4.65;;;9.40;99.90;;;;;;5069535;28;20045;-46
2024/03/28 10:49:58;;;;;;;6.43;3.95;;;9.60;99.90;;;;;;5078598;28;20044;-48
2024/03/28 10:52:31;;;;;;;6.72;4.30;;;9.60;99.90;;;;;;5083541;28;20420;-47
2024/03/28 10:55:04;;;;;;;5.93;3.67;;;9.90;99.90;;;;;;5049933;28;20059;-49
2024/03/28 10:57:33;;;;;;;8.38;4.00;;;10.20;99.90;;;;;;5078316;28;20041;-46
2024/03/28 10:59:59;;;;;;;7.68;4.15;;;10.60;99.90;;;;;;5069445;28;20047;-51
2024/03/28 11:02:27;;;;;;;6.53;4.32;;;10.70;99.90;;;;;;5074046;28;20310;-45
2024/03/28 11:04:54;;;;;;;5.60;3.78;;;10.40;99.90;;;;;;5074417;28;20571;-44
2024/03/28 11:07:24;;;;;;;5.57;4.03;;;10.50;99.90;;;;;;5054392;28;20048;-47
2024/03/28 11:09:52;;;;;;;6.10;4.05;;;10.70;99.90;;;;;;5078130;28;20104;-43
2024/03/28 11:12:19;;;;;;;7.75;4.10;;;10.60;99.90;;;;;;5070848;28;20257;-45
2024/03/28 11:14:56;;;;;;;6.40;4.45;;;10.80;99.90;;;;;;5076381;28;20059;-42
2024/03/28 11:17:22;;;;;;;6.85;4.45;;;10.80;99.90;;;;;;5075099;28;20036;-49
2024/03/28 11:20:02;;;;;;;6.65;3.90;;;10.80;99.90;;;;;;5067028;28;20052;-43
2024/03/28 11:22:32;;;;;;;5.60;3.92;;;10.60;99.90;;;;;;5076401;28;20594;-42
2024/03/28 11:24:58;;;;;;;5.55;3.67;;;10.50;99.90;;;;;;5072559;28;20040;-49
2024/03/28 11:27:24;;;;;;;5.07;3.63;;;10.50;99.90;;;;;;5070159;28;20075;-45
2024/03/28 11:29:53;;;;;;;6.88;3.80;;;10.50;99.90;;;;;;5070519;28;20175;-50
2024/03/28 11:32:23;;;;;;;4.75;3.20;;;10.50;99.90;;;;;;5068914;28;20548;-42
2024/03/28 11:34:49;;;;;;;4.65;3.22;;;10.70;99.90;;;;;;5062450;28;20090;-47
2024/03/28 11:37:22;;;;;;;3.65;2.60;;;10.60;99.90;;;;;;5064220;28;20299;-45
2024/03/28 11:39:48;;;;;;;4.97;2.33;;;10.60;99.90;;;;;;5066859;28;20044;-46
2024/03/28 11:42:18;;;;;;;4.25;2.50;;;10.40;99.90;;;;;;5070165;28;20374;-47
2024/03/28 11:44:46;;;;;;;5.82;3.55;;;10.40;99.90;;;;;;5068415;28;20044;-45
2024/03/28 11:47:22;;;;;;;3.38;2.25;;;10.50;99.90;;;;;;5064649;28;20053;-50
2024/03/28 11:49:48;;;;;;;3.10;1.90;;;10.60;99.90;;;;;;5055749;28;20044;-43
2024/03/28 11:52:14;;;;;;;3.80;2.00;;;10.40;99.90;;;;;;5075942;28;20036;-46
2024/03/28 11:54:43;;;;;;;2.38;2.10;;;10.30;99.90;;;;;;5071978;28;20044;-45
2024/03/28 11:57:09;;;;;;;3.15;2.35;;;10.40;99.90;;;;;;5056874;28;20045;-44
2024/03/28 11:59:36;;;;;;;4.15;2.10;;;10.40;99.90;;;;;;5073262;28;20043;-48
2024/03/28 12:02:03;;;;;;;4.15;1.90;;;10.30;99.90;;;;;;5074695;28;20064;-45
2024/03/28 12:04:29;;;;;;;3.88;2.00;;;10.20;99.90;;;;;;5069492;28;20114;-47
2024/03/28 12:06:59;;;;;;;2.88;1.80;;;10.30;99.90;;;;;;5067655;28;20560;-44
2024/03/28 12:09:27;;;;;;;4.70;2.20;;;10.10;99.90;;;;;;5072761;28;20053;-46
2024/03/28 12:12:06;;;;;;;3.90;2.10;;;10.20;99.90;;;;;;5067482;28;20105;-47
2024/03/28 12:14:32;;;;;;;2.83;1.92;;;10.20;99.90;;;;;;5054045;28;20060;-42
2024/03/28 12:16:58;;;;;;;2.00;1.80;;;10.30;99.90;;;;;;5070808;28;20086;-45
2024/03/28 12:19:25;;;;;;;3.05;1.98;;;10.40;99.90;;;;;;5075108;28;20146;-46
2024/03/28 12:21:52;;;;;;;2.08;1.70;;;10.50;99.90;;;;;;5055222;28;20040;-43
2024/03/28 12:24:18;;;;;;;4.95;1.92;;;10.40;99.90;;;;;;5075284;28;20044;-45
2024/03/28 12:26:45;;;;;;;2.47;1.95;;;10.40;99.90;;;;;;5076396;28;20119;-40
2024/03/28 12:29:12;;;;;;;2.40;1.70;;;10.40;99.90;;;;;;5070741;28;20551;-45
2024/03/28 12:31:38;;;;;;;2.10;1.90;;;10.50;99.90;;;;;;5070574;28;20077;-43
2024/03/28 12:34:11;;;;;;;2.20;1.98;;;10.60;99.90;;;;;;5068172;28;20403;-42
2024/03/28 12:36:38;;;;;;;2.22;1.80;;;10.70;99.90;;;;;;5075356;28;20048;-42
2024/03/28 12:39:05;;;;;;;2.08;1.80;;;10.70;99.90;;;;;;5066472;28;20037;-45
2024/03/28 12:41:31;;;;;;;3.65;2.05;;;10.80;99.90;;;;;;5074216;28;20036;-52
2024/03/28 12:44:00;;;;;;;2.53;2.05;;;10.70;99.90;;;;;;5073744;28;20048;-45
2024/03/28 12:46:26;;;;;;;2.88;1.85;;;10.50;99.90;;;;;;5071691;28;20052;-50
2024/03/28 12:48:53;;;;;;;2.15;1.80;;;10.40;99.90;;;;;;5072153;28;20659;-48
2024/03/28 12:51:19;;;;;;;2.88;1.90;;;10.40;99.90;;;;;;5076365;28;20036;-43
2024/03/28 12:53:45;;;;;;;1.83;1.63;;;10.40;99.90;;;;;;5067755;28;20094;-43